sensor_id;sensor_type;location;lat;lon;timestamp;P1;durP1;ratioP1;P2;durP2;ratioP2
69381;SDS011;56560;50.692;12.844;2023-03-21T00:00:33;12.32;;;4.50;;
69381;SDS011;56560;50.692;12.844;2023-03-21T00:02:59;10.88;;;4.25;;
69381;SDS011;56560;50.692;12.844;2023-03-21T00:05:25;11.40;;;4.50;;
69381;SDS011;56560;50.692;12.844;2023-03-21T00:07:51;11.77;;;4.60;;
69381;SDS011;56560;50.692;12.844;2023-03-21T00:10:16;11.30;;;4.47;;
69381;SDS011;56560;50.692;12.844;2023-03-21T00:12:42;11.33;;;4.30;;
69381;SDS011;56560;50.692;12.844;2023-03-21T00:15:08;10.77;;;4.30;;
69381;SDS011;56560;50.692;12.844;2023-03-21T00:17:36;13.30;;;4.43;;
69381;SDS011;56560;50.692;12.844;2023-03-21T00:20:04;11.75;;;4.38;;
69381;SDS011;56560;50.692;12.844;2023-03-21T00:22:32;11.68;;;4.50;;
69381;SDS011;56560;50.692;12.844;2023-03-21T00:24:59;13.68;;;4.30;;
69381;SDS011;56560;50.692;12.844;2023-03-21T00:27:25;12.45;;;4.35;;
69381;SDS011;56560;50.692;12.844;2023-03-21T00:29:52;13.07;;;4.70;;
69381;SDS011;56560;50.692;12.844;2023-03-21T00:32:18;13.05;;;4.50;;
69381;SDS011;56560;50.692;12.844;2023-03-21T00:34:45;11.70;;;4.57;;
69381;SDS011;56560;50.692;12.844;2023-03-21T00:37:11;12.38;;;4.50;;
69381;SDS011;56560;50.692;12.844;2023-03-21T00:39:40;12.67;;;4.53;;
69381;SDS011;56560;50.692;12.844;2023-03-21T00:42:07;13.07;;;4.38;;
69381;SDS011;56560;50.692;12.844;2023-03-21T00:44:33;13.32;;;4.40;;
69381;SDS011;56560;50.692;12.844;2023-03-21T00:47:03;12.63;;;4.50;;
69381;SDS011;56560;50.692;12.844;2023-03-21T00:49:30;11.35;;;4.03;;
69381;SDS011;56560;50.692;12.844;2023-03-21T00:52:01;11.53;;;4.10;;
69381;SDS011;56560;50.692;12.844;2023-03-21T00:54:28;11.00;;;4.20;;
69381;SDS011;56560;50.692;12.844;2023-03-21T00:56:54;11.73;;;4.28;;
69381;SDS011;56560;50.692;12.844;2023-03-21T00:59:20;10.83;;;4.10;;
69381;SDS011;56560;50.692;12.844;2023-03-21T01:01:45;14.77;;;5.10;;
69381;SDS011;56560;50.692;12.844;2023-03-21T01:04:11;10.50;;;3.90;;
69381;SDS011;56560;50.692;12.844;2023-03-21T01:06:40;10.90;;;3.97;;
69381;SDS011;56560;50.692;12.844;2023-03-21T01:09:10;10.13;;;3.38;;
69381;SDS011;56560;50.692;12.844;2023-03-21T01:11:41;10.87;;;3.67;;
69381;SDS011;56560;50.692;12.844;2023-03-21T01:14:07;10.43;;;3.30;;
69381;SDS011;56560;50.692;12.844;2023-03-21T01:16:33;9.63;;;3.55;;
69381;SDS011;56560;50.692;12.844;2023-03-21T01:19:00;9.32;;;3.60;;
69381;SDS011;56560;50.692;12.844;2023-03-21T01:21:26;8.80;;;3.33;;
69381;SDS011;56560;50.692;12.844;2023-03-21T01:23:51;9.83;;;3.67;;
69381;SDS011;56560;50.692;12.844;2023-03-21T01:26:17;10.60;;;3.40;;
69381;SDS011;56560;50.692;12.844;2023-03-21T01:28:43;9.30;;;3.00;;
69381;SDS011;56560;50.692;12.844;2023-03-21T01:31:11;9.98;;;3.45;;
69381;SDS011;56560;50.692;12.844;2023-03-21T01:33:38;10.00;;;3.30;;
69381;SDS011;56560;50.692;12.844;2023-03-21T01:36:04;10.20;;;3.45;;
69381;SDS011;56560;50.692;12.844;2023-03-21T01:38:30;9.70;;;3.42;;
69381;SDS011;56560;50.692;12.844;2023-03-21T01:40:57;10.23;;;3.20;;
69381;SDS011;56560;50.692;12.844;2023-03-21T01:43:30;13.02;;;3.70;;
69381;SDS011;56560;50.692;12.844;2023-03-21T01:48:38;9.63;;;3.40;;
69381;SDS011;56560;50.692;12.844;2023-03-21T01:51:06;9.50;;;3.65;;
69381;SDS011;56560;50.692;12.844;2023-03-21T01:53:37;9.80;;;3.53;;
69381;SDS011;56560;50.692;12.844;2023-03-21T01:56:10;11.63;;;3.45;;
69381;SDS011;56560;50.692;12.844;2023-03-21T01:58:40;66.13;;;21.95;;
69381;SDS011;56560;50.692;12.844;2023-03-21T02:01:07;46.50;;;17.43;;
69381;SDS011;56560;50.692;12.844;2023-03-21T02:03:34;33.80;;;12.43;;
69381;SDS011;56560;50.692;12.844;2023-03-21T02:06:07;18.92;;;6.90;;
69381;SDS011;56560;50.692;12.844;2023-03-21T02:08:36;19.50;;;5.78;;
69381;SDS011;56560;50.692;12.844;2023-03-21T02:11:02;14.50;;;5.13;;
69381;SDS011;56560;50.692;12.844;2023-03-21T02:13:28;14.15;;;4.88;;
69381;SDS011;56560;50.692;12.844;2023-03-21T02:15:58;12.40;;;4.30;;
69381;SDS011;56560;50.692;12.844;2023-03-21T02:18:38;13.70;;;4.82;;
69381;SDS011;56560;50.692;12.844;2023-03-21T02:24:26;10.27;;;3.30;;
69381;SDS011;56560;50.692;12.844;2023-03-21T02:40:54;9.77;;;3.03;;
69381;SDS011;56560;50.692;12.844;2023-03-21T02:43:53;10.35;;;3.08;;
69381;SDS011;56560;50.692;12.844;2023-03-21T02:46:31;7.95;;;2.70;;
69381;SDS011;56560;50.692;12.844;2023-03-21T02:49:10;9.17;;;2.80;;
69381;SDS011;56560;50.692;12.844;2023-03-21T02:51:39;7.97;;;2.47;;
69381;SDS011;56560;50.692;12.844;2023-03-21T02:54:08;8.40;;;2.60;;
69381;SDS011;56560;50.692;12.844;2023-03-21T02:56:37;8.90;;;2.92;;
69381;SDS011;56560;50.692;12.844;2023-03-21T02:59:04;8.43;;;2.47;;
69381;SDS011;56560;50.692;12.844;2023-03-21T03:01:31;9.73;;;2.90;;
69381;SDS011;56560;50.692;12.844;2023-03-21T03:03:57;11.40;;;3.78;;
69381;SDS011;56560;50.692;12.844;2023-03-21T03:06:24;8.35;;;2.88;;
69381;SDS011;56560;50.692;12.844;2023-03-21T03:11:37;8.75;;;3.00;;
69381;SDS011;56560;50.692;12.844;2023-03-21T03:14:21;9.48;;;2.80;;
69381;SDS011;56560;50.692;12.844;2023-03-21T03:17:39;10.20;;;3.13;;
69381;SDS011;56560;50.692;12.844;2023-03-21T03:23:18;13.90;;;4.10;;
69381;SDS011;56560;50.692;12.844;2023-03-21T03:25:54;11.27;;;3.47;;
69381;SDS011;56560;50.692;12.844;2023-03-21T03:28:28;11.55;;;3.40;;
69381;SDS011;56560;50.692;12.844;2023-03-21T03:30:57;10.10;;;3.30;;
69381;SDS011;56560;50.692;12.844;2023-03-21T03:33:23;9.70;;;3.13;;
69381;SDS011;56560;50.692;12.844;2023-03-21T03:35:51;11.57;;;3.45;;
69381;SDS011;56560;50.692;12.844;2023-03-21T03:38:19;10.02;;;3.10;;
69381;SDS011;56560;50.692;12.844;2023-03-21T03:41:00;9.98;;;3.30;;
69381;SDS011;56560;50.692;12.844;2023-03-21T03:43:49;9.97;;;3.43;;
69381;SDS011;56560;50.692;12.844;2023-03-21T03:46:40;10.45;;;3.42;;
69381;SDS011;56560;50.692;12.844;2023-03-21T03:49:07;10.27;;;3.13;;
69381;SDS011;56560;50.692;12.844;2023-03-21T03:52:02;10.63;;;3.28;;
69381;SDS011;56560;50.692;12.844;2023-03-21T03:54:38;10.52;;;3.60;;
69381;SDS011;56560;50.692;12.844;2023-03-21T03:57:07;11.23;;;3.60;;
69381;SDS011;56560;50.692;12.844;2023-03-21T03:59:36;14.57;;;4.10;;
69381;SDS011;56560;50.692;12.844;2023-03-21T04:02:03;13.48;;;3.90;;
69381;SDS011;56560;50.692;12.844;2023-03-21T04:04:28;12.68;;;3.85;;
69381;SDS011;56560;50.692;12.844;2023-03-21T04:06:55;13.02;;;3.90;;
69381;SDS011;56560;50.692;12.844;2023-03-21T04:09:21;11.82;;;4.03;;
69381;SDS011;56560;50.692;12.844;2023-03-21T04:11:48;12.57;;;4.03;;
69381;SDS011;56560;50.692;12.844;2023-03-21T04:14:14;13.32;;;4.10;;
69381;SDS011;56560;50.692;12.844;2023-03-21T04:16:40;14.00;;;4.60;;
69381;SDS011;56560;50.692;12.844;2023-03-21T04:19:06;11.32;;;4.13;;
69381;SDS011;56560;50.692;12.844;2023-03-21T04:21:31;13.83;;;4.20;;
69381;SDS011;56560;50.692;12.844;2023-03-21T04:23:57;13.57;;;4.30;;
69381;SDS011;56560;50.692;12.844;2023-03-21T04:26:23;12.98;;;4.05;;
69381;SDS011;56560;50.692;12.844;2023-03-21T04:28:49;16.13;;;4.10;;
69381;SDS011;56560;50.692;12.844;2023-03-21T04:31:15;11.63;;;3.95;;
69381;SDS011;56560;50.692;12.844;2023-03-21T04:33:44;13.18;;;4.35;;
69381;SDS011;56560;50.692;12.844;2023-03-21T04:36:12;11.98;;;4.28;;
69381;SDS011;56560;50.692;12.844;2023-03-21T04:38:49;15.63;;;4.47;;
69381;SDS011;56560;50.692;12.844;2023-03-21T04:41:15;15.50;;;4.35;;
69381;SDS011;56560;50.692;12.844;2023-03-21T04:43:40;13.53;;;4.33;;
69381;SDS011;56560;50.692;12.844;2023-03-21T04:46:06;14.18;;;4.47;;
69381;SDS011;56560;50.692;12.844;2023-03-21T04:48:32;15.33;;;4.77;;
69381;SDS011;56560;50.692;12.844;2023-03-21T04:50:57;14.85;;;4.90;;
69381;SDS011;56560;50.692;12.844;2023-03-21T04:53:23;14.43;;;4.93;;
69381;SDS011;56560;50.692;12.844;2023-03-21T04:55:49;12.90;;;5.00;;
69381;SDS011;56560;50.692;12.844;2023-03-21T04:58:15;13.63;;;4.30;;
69381;SDS011;56560;50.692;12.844;2023-03-21T05:00:40;15.98;;;5.03;;
69381;SDS011;56560;50.692;12.844;2023-03-21T05:03:06;13.53;;;4.73;;
69381;SDS011;56560;50.692;12.844;2023-03-21T05:05:33;14.05;;;5.28;;
69381;SDS011;56560;50.692;12.844;2023-03-21T05:08:03;14.73;;;4.60;;
69381;SDS011;56560;50.692;12.844;2023-03-21T05:10:29;14.10;;;4.75;;
69381;SDS011;56560;50.692;12.844;2023-03-21T05:12:55;15.70;;;4.80;;
69381;SDS011;56560;50.692;12.844;2023-03-21T05:15:21;14.68;;;5.07;;
69381;SDS011;56560;50.692;12.844;2023-03-21T05:17:46;14.30;;;5.00;;
69381;SDS011;56560;50.692;12.844;2023-03-21T05:20:12;13.82;;;4.95;;
69381;SDS011;56560;50.692;12.844;2023-03-21T05:22:41;13.68;;;4.53;;
69381;SDS011;56560;50.692;12.844;2023-03-21T05:25:10;13.30;;;4.40;;
69381;SDS011;56560;50.692;12.844;2023-03-21T05:27:37;16.08;;;4.80;;
69381;SDS011;56560;50.692;12.844;2023-03-21T05:32:36;17.80;;;5.20;;
69381;SDS011;56560;50.692;12.844;2023-03-21T05:35:02;16.02;;;5.45;;
69381;SDS011;56560;50.692;12.844;2023-03-21T05:37:28;12.97;;;5.13;;
69381;SDS011;56560;50.692;12.844;2023-03-21T05:39:53;14.43;;;5.35;;
69381;SDS011;56560;50.692;12.844;2023-03-21T05:42:19;15.43;;;5.20;;
69381;SDS011;56560;50.692;12.844;2023-03-21T05:44:45;16.52;;;5.60;;
69381;SDS011;56560;50.692;12.844;2023-03-21T05:47:11;15.67;;;5.63;;
69381;SDS011;56560;50.692;12.844;2023-03-21T05:49:37;15.93;;;5.80;;
69381;SDS011;56560;50.692;12.844;2023-03-21T05:52:03;13.73;;;4.68;;
69381;SDS011;56560;50.692;12.844;2023-03-21T05:54:29;14.83;;;5.47;;
69381;SDS011;56560;50.692;12.844;2023-03-21T05:56:55;15.55;;;5.32;;
69381;SDS011;56560;50.692;12.844;2023-03-21T05:59:20;15.70;;;5.20;;
69381;SDS011;56560;50.692;12.844;2023-03-21T06:01:46;15.95;;;5.45;;
69381;SDS011;56560;50.692;12.844;2023-03-21T06:04:12;14.77;;;4.67;;
69381;SDS011;56560;50.692;12.844;2023-03-21T06:06:38;15.93;;;4.93;;
69381;SDS011;56560;50.692;12.844;2023-03-21T06:09:04;17.83;;;5.80;;
69381;SDS011;56560;50.692;12.844;2023-03-21T06:11:31;17.05;;;6.32;;
69381;SDS011;56560;50.692;12.844;2023-03-21T06:14:01;16.87;;;6.50;;
69381;SDS011;56560;50.692;12.844;2023-03-21T06:16:27;15.90;;;5.90;;
69381;SDS011;56560;50.692;12.844;2023-03-21T06:18:53;17.42;;;6.15;;
69381;SDS011;56560;50.692;12.844;2023-03-21T06:21:19;19.03;;;6.33;;
69381;SDS011;56560;50.692;12.844;2023-03-21T06:23:45;15.52;;;6.35;;
69381;SDS011;56560;50.692;12.844;2023-03-21T06:26:11;14.80;;;5.10;;
69381;SDS011;56560;50.692;12.844;2023-03-21T06:28:37;14.30;;;5.38;;
69381;SDS011;56560;50.692;12.844;2023-03-21T06:31:03;15.73;;;5.97;;
69381;SDS011;56560;50.692;12.844;2023-03-21T06:33:29;15.45;;;6.00;;
69381;SDS011;56560;50.692;12.844;2023-03-21T06:35:56;17.75;;;6.05;;
69381;SDS011;56560;50.692;12.844;2023-03-21T06:38:23;16.30;;;5.65;;
69381;SDS011;56560;50.692;12.844;2023-03-21T06:40:49;16.57;;;5.70;;
69381;SDS011;56560;50.692;12.844;2023-03-21T06:43:15;14.80;;;5.75;;
69381;SDS011;56560;50.692;12.844;2023-03-21T06:45:41;17.17;;;5.90;;
69381;SDS011;56560;50.692;12.844;2023-03-21T06:48:07;14.30;;;5.03;;
69381;SDS011;56560;50.692;12.844;2023-03-21T06:50:33;12.93;;;4.63;;
69381;SDS011;56560;50.692;12.844;2023-03-21T06:52:58;14.05;;;5.40;;
69381;SDS011;56560;50.692;12.844;2023-03-21T06:55:24;14.30;;;5.25;;
69381;SDS011;56560;50.692;12.844;2023-03-21T06:57:52;14.35;;;5.47;;
69381;SDS011;56560;50.692;12.844;2023-03-21T07:00:19;14.10;;;5.25;;
69381;SDS011;56560;50.692;12.844;2023-03-21T07:02:45;14.07;;;4.97;;
69381;SDS011;56560;50.692;12.844;2023-03-21T07:05:11;19.57;;;7.87;;
69381;SDS011;56560;50.692;12.844;2023-03-21T07:07:37;14.95;;;5.53;;
69381;SDS011;56560;50.692;12.844;2023-03-21T07:10:03;15.40;;;5.30;;
69381;SDS011;56560;50.692;12.844;2023-03-21T07:12:29;13.82;;;5.60;;
69381;SDS011;56560;50.692;12.844;2023-03-21T07:14:58;15.50;;;6.03;;
69381;SDS011;56560;50.692;12.844;2023-03-21T07:17:24;11.93;;;4.47;;
69381;SDS011;56560;50.692;12.844;2023-03-21T07:19:50;13.80;;;5.65;;
69381;SDS011;56560;50.692;12.844;2023-03-21T07:22:16;15.43;;;5.80;;
69381;SDS011;56560;50.692;12.844;2023-03-21T07:24:41;15.63;;;5.38;;
69381;SDS011;56560;50.692;12.844;2023-03-21T07:27:07;14.70;;;4.95;;
69381;SDS011;56560;50.692;12.844;2023-03-21T07:29:33;14.05;;;4.90;;
69381;SDS011;56560;50.692;12.844;2023-03-21T07:31:58;14.43;;;4.88;;
69381;SDS011;56560;50.692;12.844;2023-03-21T07:34:24;13.73;;;5.30;;
69381;SDS011;56560;50.692;12.844;2023-03-21T07:36:51;15.23;;;5.32;;
69381;SDS011;56560;50.692;12.844;2023-03-21T07:39:17;13.77;;;4.78;;
69381;SDS011;56560;50.692;12.844;2023-03-21T07:41:44;14.82;;;4.85;;
69381;SDS011;56560;50.692;12.844;2023-03-21T07:44:10;16.15;;;5.13;;
69381;SDS011;56560;50.692;12.844;2023-03-21T07:46:35;12.57;;;4.73;;
69381;SDS011;56560;50.692;12.844;2023-03-21T07:49:01;18.95;;;8.45;;
69381;SDS011;56560;50.692;12.844;2023-03-21T07:51:27;13.53;;;5.47;;
69381;SDS011;56560;50.692;12.844;2023-03-21T07:53:52;13.52;;;4.80;;
69381;SDS011;56560;50.692;12.844;2023-03-21T07:56:18;15.27;;;5.23;;
69381;SDS011;56560;50.692;12.844;2023-03-21T07:58:47;15.82;;;5.53;;
69381;SDS011;56560;50.692;12.844;2023-03-21T08:01:12;14.57;;;5.30;;
69381;SDS011;56560;50.692;12.844;2023-03-21T08:03:38;13.57;;;5.07;;
69381;SDS011;56560;50.692;12.844;2023-03-21T08:06:03;15.45;;;5.28;;
69381;SDS011;56560;50.692;12.844;2023-03-21T08:08:29;14.57;;;5.55;;
69381;SDS011;56560;50.692;12.844;2023-03-21T08:10:55;14.45;;;5.80;;
69381;SDS011;56560;50.692;12.844;2023-03-21T08:13:20;16.57;;;5.30;;
69381;SDS011;56560;50.692;12.844;2023-03-21T08:15:46;14.95;;;5.05;;
69381;SDS011;56560;50.692;12.844;2023-03-21T08:18:12;12.65;;;5.22;;
69381;SDS011;56560;50.692;12.844;2023-03-21T08:20:38;16.03;;;5.67;;
69381;SDS011;56560;50.692;12.844;2023-03-21T08:23:03;14.52;;;4.53;;
69381;SDS011;56560;50.692;12.844;2023-03-21T08:25:29;14.73;;;5.73;;
69381;SDS011;56560;50.692;12.844;2023-03-21T08:27:55;14.00;;;5.50;;
69381;SDS011;56560;50.692;12.844;2023-03-21T08:30:21;13.27;;;5.20;;
69381;SDS011;56560;50.692;12.844;2023-03-21T08:32:50;16.48;;;5.93;;
69381;SDS011;56560;50.692;12.844;2023-03-21T08:35:19;15.95;;;5.70;;
69381;SDS011;56560;50.692;12.844;2023-03-21T08:37:45;14.63;;;4.43;;
69381;SDS011;56560;50.692;12.844;2023-03-21T08:40:12;13.88;;;5.70;;
69381;SDS011;56560;50.692;12.844;2023-03-21T08:42:40;15.37;;;5.07;;
69381;SDS011;56560;50.692;12.844;2023-03-21T08:45:07;12.05;;;4.50;;
69381;SDS011;56560;50.692;12.844;2023-03-21T08:47:34;11.35;;;4.38;;
69381;SDS011;56560;50.692;12.844;2023-03-21T08:50:00;11.63;;;4.53;;
69381;SDS011;56560;50.692;12.844;2023-03-21T08:52:26;9.23;;;3.40;;
69381;SDS011;56560;50.692;12.844;2023-03-21T08:54:54;9.50;;;3.15;;
69381;SDS011;56560;50.692;12.844;2023-03-21T08:57:20;7.97;;;3.00;;
69381;SDS011;56560;50.692;12.844;2023-03-21T08:59:45;9.43;;;2.97;;
69381;SDS011;56560;50.692;12.844;2023-03-21T09:02:14;10.05;;;3.38;;
69381;SDS011;56560;50.692;12.844;2023-03-21T09:04:41;10.27;;;3.83;;
69381;SDS011;56560;50.692;12.844;2023-03-21T09:07:07;7.68;;;2.80;;
69381;SDS011;56560;50.692;12.844;2023-03-21T09:09:34;9.27;;;3.30;;
69381;SDS011;56560;50.692;12.844;2023-03-21T09:12:00;11.10;;;3.88;;
69381;SDS011;56560;50.692;12.844;2023-03-21T09:14:25;13.37;;;4.53;;
69381;SDS011;56560;50.692;12.844;2023-03-21T09:16:54;11.93;;;4.53;;
69381;SDS011;56560;50.692;12.844;2023-03-21T09:19:20;9.88;;;3.40;;
69381;SDS011;56560;50.692;12.844;2023-03-21T09:21:45;14.82;;;5.35;;
69381;SDS011;56560;50.692;12.844;2023-03-21T09:24:11;22.50;;;8.18;;
69381;SDS011;56560;50.692;12.844;2023-03-21T09:26:37;8.75;;;3.00;;
69381;SDS011;56560;50.692;12.844;2023-03-21T09:29:03;18.27;;;6.63;;
69381;SDS011;56560;50.692;12.844;2023-03-21T09:31:31;9.88;;;3.05;;
69381;SDS011;56560;50.692;12.844;2023-03-21T09:33:57;30.80;;;11.43;;
69381;SDS011;56560;50.692;12.844;2023-03-21T09:36:23;10.20;;;3.90;;
69381;SDS011;56560;50.692;12.844;2023-03-21T09:38:51;11.15;;;3.95;;
69381;SDS011;56560;50.692;12.844;2023-03-21T09:44:57;5.93;;;2.47;;
69381;SDS011;56560;50.692;12.844;2023-03-21T09:50:12;7.28;;;2.60;;
69381;SDS011;56560;50.692;12.844;2023-03-21T09:52:43;7.22;;;2.35;;
69381;SDS011;56560;50.692;12.844;2023-03-21T09:55:14;8.27;;;2.00;;
69381;SDS011;56560;50.692;12.844;2023-03-21T10:00:57;6.10;;;1.98;;
69381;SDS011;56560;50.692;12.844;2023-03-21T10:03:29;8.10;;;3.35;;
69381;SDS011;56560;50.692;12.844;2023-03-21T10:05:59;9.00;;;2.97;;
69381;SDS011;56560;50.692;12.844;2023-03-21T10:08:32;6.07;;;2.08;;
69381;SDS011;56560;50.692;12.844;2023-03-21T10:11:23;8.25;;;2.33;;
69381;SDS011;56560;50.692;12.844;2023-03-21T10:13:50;4.47;;;1.60;;
69381;SDS011;56560;50.692;12.844;2023-03-21T10:16:28;7.75;;;1.92;;
69381;SDS011;56560;50.692;12.844;2023-03-21T10:18:57;6.47;;;2.25;;
69381;SDS011;56560;50.692;12.844;2023-03-21T10:21:29;6.63;;;2.17;;
69381;SDS011;56560;50.692;12.844;2023-03-21T10:23:56;6.07;;;1.95;;
69381;SDS011;56560;50.692;12.844;2023-03-21T10:26:23;3.65;;;1.10;;
69381;SDS011;56560;50.692;12.844;2023-03-21T10:28:52;4.93;;;1.58;;
69381;SDS011;56560;50.692;12.844;2023-03-21T10:31:22;3.42;;;1.40;;
69381;SDS011;56560;50.692;12.844;2023-03-21T10:33:51;2.85;;;1.17;;
69381;SDS011;56560;50.692;12.844;2023-03-21T10:36:21;3.33;;;1.30;;
69381;SDS011;56560;50.692;12.844;2023-03-21T10:38:50;3.85;;;1.48;;
69381;SDS011;56560;50.692;12.844;2023-03-21T10:41:19;3.40;;;1.30;;
69381;SDS011;56560;50.692;12.844;2023-03-21T10:43:45;2.83;;;1.10;;
69381;SDS011;56560;50.692;12.844;2023-03-21T10:46:27;4.55;;;1.40;;
69381;SDS011;56560;50.692;12.844;2023-03-21T10:48:53;4.40;;;1.20;;
69381;SDS011;56560;50.692;12.844;2023-03-21T10:51:19;4.03;;;1.40;;
69381;SDS011;56560;50.692;12.844;2023-03-21T10:53:58;4.13;;;1.48;;
69381;SDS011;56560;50.692;12.844;2023-03-21T10:56:37;3.85;;;1.50;;
69381;SDS011;56560;50.692;12.844;2023-03-21T10:59:16;4.05;;;1.52;;
69381;SDS011;56560;50.692;12.844;2023-03-21T11:01:48;7.45;;;1.75;;
69381;SDS011;56560;50.692;12.844;2023-03-21T11:04:17;4.88;;;1.77;;
69381;SDS011;56560;50.692;12.844;2023-03-21T11:06:50;4.65;;;2.00;;
69381;SDS011;56560;50.692;12.844;2023-03-21T11:09:20;4.15;;;1.70;;
69381;SDS011;56560;50.692;12.844;2023-03-21T11:14:38;5.75;;;2.10;;
69381;SDS011;56560;50.692;12.844;2023-03-21T11:19:45;3.17;;;1.60;;
69381;SDS011;56560;50.692;12.844;2023-03-21T11:22:12;5.80;;;2.17;;
69381;SDS011;56560;50.692;12.844;2023-03-21T11:24:39;5.95;;;2.22;;
69381;SDS011;56560;50.692;12.844;2023-03-21T11:27:08;4.78;;;1.80;;
69381;SDS011;56560;50.692;12.844;2023-03-21T11:32:01;4.40;;;1.90;;
69381;SDS011;56560;50.692;12.844;2023-03-21T11:37:04;6.97;;;2.20;;
69381;SDS011;56560;50.692;12.844;2023-03-21T11:39:35;9.43;;;2.90;;
69381;SDS011;56560;50.692;12.844;2023-03-21T11:42:10;6.20;;;1.90;;
69381;SDS011;56560;50.692;12.844;2023-03-21T11:44:56;4.80;;;1.80;;
69381;SDS011;56560;50.692;12.844;2023-03-21T11:47:25;3.47;;;1.60;;
69381;SDS011;56560;50.692;12.844;2023-03-21T11:49:52;4.30;;;1.77;;
69381;SDS011;56560;50.692;12.844;2023-03-21T11:55:07;4.30;;;1.60;;
69381;SDS011;56560;50.692;12.844;2023-03-21T12:01:08;3.28;;;1.40;;
69381;SDS011;56560;50.692;12.844;2023-03-21T12:18:28;4.43;;;1.60;;
69381;SDS011;56560;50.692;12.844;2023-03-21T12:21:02;4.25;;;1.60;;
69381;SDS011;56560;50.692;12.844;2023-03-21T12:23:57;4.47;;;1.63;;
69381;SDS011;56560;50.692;12.844;2023-03-21T12:29:22;4.07;;;1.70;;
69381;SDS011;56560;50.692;12.844;2023-03-21T12:35:14;3.75;;;1.40;;
69381;SDS011;56560;50.692;12.844;2023-03-21T12:37:52;3.97;;;1.30;;
69381;SDS011;56560;50.692;12.844;2023-03-21T12:43:23;4.73;;;1.70;;
69381;SDS011;56560;50.692;12.844;2023-03-21T12:46:18;4.32;;;1.70;;
69381;SDS011;56560;50.692;12.844;2023-03-21T12:48:49;5.18;;;1.85;;
69381;SDS011;56560;50.692;12.844;2023-03-21T12:51:21;4.65;;;1.70;;
69381;SDS011;56560;50.692;12.844;2023-03-21T12:54:02;3.80;;;1.60;;
69381;SDS011;56560;50.692;12.844;2023-03-21T13:04:48;4.07;;;1.58;;
69381;SDS011;56560;50.692;12.844;2023-03-21T13:07:21;4.93;;;1.67;;
69381;SDS011;56560;50.692;12.844;2023-03-21T13:09:49;3.87;;;1.50;;
69381;SDS011;56560;50.692;12.844;2023-03-21T13:12:27;6.25;;;2.60;;
69381;SDS011;56560;50.692;12.844;2023-03-21T13:18:08;6.50;;;1.77;;
69381;SDS011;56560;50.692;12.844;2023-03-21T13:20:42;5.22;;;1.42;;
69381;SDS011;56560;50.692;12.844;2023-03-21T13:23:11;3.53;;;1.30;;
69381;SDS011;56560;50.692;12.844;2023-03-21T13:25:40;4.55;;;1.58;;
69381;SDS011;56560;50.692;12.844;2023-03-21T13:28:15;4.18;;;1.50;;
69381;SDS011;56560;50.692;12.844;2023-03-21T13:30:47;2.92;;;1.17;;
69381;SDS011;56560;50.692;12.844;2023-03-21T13:33:14;3.80;;;1.45;;
69381;SDS011;56560;50.692;12.844;2023-03-21T13:35:49;2.97;;;1.40;;
69381;SDS011;56560;50.692;12.844;2023-03-21T13:38:31;2.40;;;1.20;;
69381;SDS011;56560;50.692;12.844;2023-03-21T13:46:06;3.47;;;1.33;;
69381;SDS011;56560;50.692;12.844;2023-03-21T13:49:36;9.33;;;2.10;;
69381;SDS011;56560;50.692;12.844;2023-03-21T13:56:55;4.43;;;1.60;;
69381;SDS011;56560;50.692;12.844;2023-03-21T14:04:36;3.97;;;1.40;;
69381;SDS011;56560;50.692;12.844;2023-03-21T14:07:24;5.68;;;1.50;;
69381;SDS011;56560;50.692;12.844;2023-03-21T14:09:59;5.07;;;1.30;;
69381;SDS011;56560;50.692;12.844;2023-03-21T14:12:29;3.78;;;1.50;;
69381;SDS011;56560;50.692;12.844;2023-03-21T14:17:54;3.95;;;1.58;;
69381;SDS011;56560;50.692;12.844;2023-03-21T14:20:23;7.20;;;1.58;;
69381;SDS011;56560;50.692;12.844;2023-03-21T14:22:56;5.05;;;1.67;;
69381;SDS011;56560;50.692;12.844;2023-03-21T14:25:23;4.85;;;1.50;;
69381;SDS011;56560;50.692;12.844;2023-03-21T14:27:56;5.97;;;1.90;;
69381;SDS011;56560;50.692;12.844;2023-03-21T14:30:26;5.15;;;1.70;;
69381;SDS011;56560;50.692;12.844;2023-03-21T14:32:56;6.10;;;2.40;;
69381;SDS011;56560;50.692;12.844;2023-03-21T14:35:27;5.88;;;2.10;;
69381;SDS011;56560;50.692;12.844;2023-03-21T14:37:55;5.60;;;1.80;;
69381;SDS011;56560;50.692;12.844;2023-03-21T14:40:25;4.67;;;1.80;;
69381;SDS011;56560;50.692;12.844;2023-03-21T14:42:52;10.65;;;3.58;;
69381;SDS011;56560;50.692;12.844;2023-03-21T14:45:23;6.78;;;2.47;;
69381;SDS011;56560;50.692;12.844;2023-03-21T14:48:05;9.77;;;4.03;;
69381;SDS011;56560;50.692;12.844;2023-03-21T14:50:38;5.38;;;1.80;;
69381;SDS011;56560;50.692;12.844;2023-03-21T14:53:20;8.65;;;2.08;;
69381;SDS011;56560;50.692;12.844;2023-03-21T14:58:23;4.95;;;1.88;;
69381;SDS011;56560;50.692;12.844;2023-03-21T15:00:50;4.55;;;1.83;;
69381;SDS011;56560;50.692;12.844;2023-03-21T15:03:17;6.18;;;2.00;;
69381;SDS011;56560;50.692;12.844;2023-03-21T15:05:46;5.35;;;1.70;;
69381;SDS011;56560;50.692;12.844;2023-03-21T15:08:16;4.97;;;2.00;;
69381;SDS011;56560;50.692;12.844;2023-03-21T15:13:48;5.57;;;2.20;;
69381;SDS011;56560;50.692;12.844;2023-03-21T15:16:18;7.43;;;2.50;;
69381;SDS011;56560;50.692;12.844;2023-03-21T15:18:45;8.40;;;2.72;;
69381;SDS011;56560;50.692;12.844;2023-03-21T15:21:21;8.32;;;2.95;;
69381;SDS011;56560;50.692;12.844;2023-03-21T15:23:52;8.30;;;2.10;;
69381;SDS011;56560;50.692;12.844;2023-03-21T15:26:21;5.22;;;2.20;;
69381;SDS011;56560;50.692;12.844;2023-03-21T15:28:50;9.68;;;3.55;;
69381;SDS011;56560;50.692;12.844;2023-03-21T15:31:21;6.40;;;2.20;;
69381;SDS011;56560;50.692;12.844;2023-03-21T15:33:52;7.90;;;3.13;;
69381;SDS011;56560;50.692;12.844;2023-03-21T15:36:31;7.32;;;2.92;;
69381;SDS011;56560;50.692;12.844;2023-03-21T15:39:11;6.80;;;2.40;;
69381;SDS011;56560;50.692;12.844;2023-03-21T15:41:38;7.78;;;2.50;;
69381;SDS011;56560;50.692;12.844;2023-03-21T15:46:42;6.55;;;2.35;;
69381;SDS011;56560;50.692;12.844;2023-03-21T15:54:10;14.77;;;7.85;;
69381;SDS011;56560;50.692;12.844;2023-03-21T15:56:39;8.90;;;3.88;;
69381;SDS011;56560;50.692;12.844;2023-03-21T15:59:11;8.55;;;2.80;;
69381;SDS011;56560;50.692;12.844;2023-03-21T16:01:38;10.67;;;3.60;;
69381;SDS011;56560;50.692;12.844;2023-03-21T16:04:08;8.80;;;3.83;;
69381;SDS011;56560;50.692;12.844;2023-03-21T16:06:37;10.70;;;3.60;;
69381;SDS011;56560;50.692;12.844;2023-03-21T16:09:15;10.80;;;4.47;;
69381;SDS011;56560;50.692;12.844;2023-03-21T16:11:48;10.32;;;3.60;;
69381;SDS011;56560;50.692;12.844;2023-03-21T16:14:14;10.13;;;3.42;;
69381;SDS011;56560;50.692;12.844;2023-03-21T16:16:39;8.57;;;3.10;;
69381;SDS011;56560;50.692;12.844;2023-03-21T16:19:05;10.10;;;4.07;;
69381;SDS011;56560;50.692;12.844;2023-03-21T16:21:31;14.10;;;4.95;;
69381;SDS011;56560;50.692;12.844;2023-03-21T16:23:58;14.35;;;5.50;;
69381;SDS011;56560;50.692;12.844;2023-03-21T16:26:25;12.52;;;4.60;;
69381;SDS011;56560;50.692;12.844;2023-03-21T16:28:54;14.40;;;5.30;;
69381;SDS011;56560;50.692;12.844;2023-03-21T16:31:20;16.75;;;6.47;;
69381;SDS011;56560;50.692;12.844;2023-03-21T16:33:49;15.85;;;8.27;;
69381;SDS011;56560;50.692;12.844;2023-03-21T16:36:19;36.03;;;17.27;;
69381;SDS011;56560;50.692;12.844;2023-03-21T16:38:50;29.42;;;15.25;;